createdAt,value
2023-04-26T00:01:53.836Z,100396.44
2023-04-26T00:06:46.671Z,100385.09
2023-04-26T00:11:39.889Z,100385.19
2023-04-26T00:16:34.000Z,100387.00
2023-04-26T00:21:27.991Z,100381.78
2023-04-26T00:26:20.509Z,100350.16
2023-04-26T00:31:16.879Z,100369.78
2023-04-26T00:36:10.515Z,100363.72
2023-04-26T00:41:04.419Z,100377.75
2023-04-26T00:45:58.677Z,100337.13
2023-04-26T00:50:51.817Z,100382.44
2023-04-26T00:55:45.926Z,100356.97
2023-04-26T01:00:39.062Z,100363.16
2023-04-26T01:05:32.700Z,100379.25
2023-04-26T01:10:26.780Z,100377.69
2023-04-26T01:15:19.506Z,100364.44
2023-04-26T01:20:14.851Z,100365.28
2023-04-26T01:25:09.609Z,100399.13
2023-04-26T01:30:03.619Z,100361.38
2023-04-26T01:34:57.197Z,100387.59
2023-04-26T01:39:50.746Z,100388.88
2023-04-26T01:44:46.571Z,100405.66
2023-04-26T01:49:40.521Z,100415.53
2023-04-26T01:54:33.938Z,100431.59
2023-04-26T01:59:27.825Z,100429.97
2023-04-26T02:04:20.452Z,100427.31
2023-04-26T02:09:14.244Z,100436.16
2023-04-26T02:14:07.549Z,100411.00
2023-04-26T02:19:00.180Z,100446.22
2023-04-26T02:23:53.486Z,100419.47
2023-04-26T02:28:46.596Z,100416.94
2023-04-26T02:33:40.016Z,100436.22
2023-04-26T02:38:36.532Z,100441.44
2023-04-26T02:43:31.556Z,100405.88
2023-04-26T02:48:25.583Z,100441.22
2023-04-26T02:53:18.815Z,100423.50
2023-04-26T02:58:12.346Z,100438.78
2023-04-26T03:03:06.116Z,100453.97
2023-04-26T03:07:59.213Z,100426.91
2023-04-26T03:12:52.410Z,100447.69
2023-04-26T03:17:46.509Z,100466.59
2023-04-26T03:22:39.281Z,100459.59
2023-04-26T03:27:33.428Z,100424.25
2023-04-26T03:32:26.860Z,100442.78
2023-04-26T03:37:20.171Z,100435.69
2023-04-26T03:42:22.494Z,100435.19
2023-04-26T03:47:16.557Z,100434.31
2023-04-26T03:52:09.870Z,100438.59
2023-04-26T03:57:03.895Z,100450.59
2023-04-26T04:01:57.067Z,100460.97
2023-04-26T04:06:49.344Z,100454.09
2023-04-26T04:11:45.682Z,100419.50
2023-04-26T04:16:39.177Z,100456.00
2023-04-26T04:21:33.489Z,100437.53
2023-04-26T04:26:28.069Z,100483.63
2023-04-26T04:31:22.481Z,100471.28
2023-04-26T04:36:19.330Z,100472.38
2023-04-26T04:41:12.713Z,100462.47
2023-04-26T04:46:06.585Z,100466.22
2023-04-26T04:51:00.846Z,100461.22
2023-04-26T04:55:54.629Z,100471.72
2023-04-26T05:00:48.649Z,100479.41
2023-04-26T05:06:01.444Z,100510.38
2023-04-26T05:10:55.924Z,100502.31
2023-04-26T05:15:49.464Z,100534.53
2023-04-26T05:20:43.379Z,100498.59
2023-04-26T05:25:38.756Z,100528.53
2023-04-26T05:30:55.373Z,100553.31
2023-04-26T05:35:55.965Z,100538.09
2023-04-26T05:40:50.609Z,100559.56
2023-04-26T05:45:57.369Z,100568.38
2023-04-26T05:50:55.297Z,100568.38
2023-04-26T05:55:48.579Z,100552.25
2023-04-26T06:00:42.571Z,100539.09
2023-04-26T06:05:41.419Z,100576.78
2023-04-26T06:10:36.490Z,100545.97
2023-04-26T06:15:32.536Z,100525.47
2023-04-26T06:20:29.708Z,100581.25
2023-04-26T06:25:26.572Z,100584.88
2023-04-26T06:30:23.503Z,100570.72
2023-04-26T06:35:25.811Z,100580.59
2023-04-26T06:40:28.531Z,100618.44
2023-04-26T06:45:29.529Z,100604.72
2023-04-26T06:50:26.885Z,100634.44
2023-04-26T06:55:22.405Z,100628.19
2023-04-26T07:00:16.524Z,100658.28
2023-04-26T07:05:09.834Z,100649.25
2023-04-26T07:10:05.447Z,100665.06
2023-04-26T07:15:04.304Z,100650.81
2023-04-26T07:20:04.161Z,100655.09
2023-04-26T07:24:58.726Z,100636.16
2023-04-26T07:29:58.932Z,100656.06
2023-04-26T07:34:58.310Z,100636.50
2023-04-26T07:39:59.592Z,100587.59
2023-04-26T07:44:55.068Z,100642.53
2023-04-26T07:49:56.257Z,100593.03
2023-04-26T07:54:53.041Z,100640.84
2023-04-26T07:59:48.889Z,100641.59
2023-04-26T08:04:51.330Z,100628.94
2023-04-26T08:09:49.293Z,100633.19
2023-04-26T08:14:44.149Z,100635.00
2023-04-26T08:19:44.225Z,100631.06
2023-04-26T08:24:38.251Z,100652.13
2023-04-26T08:29:32.054Z,100666.88
2023-04-26T08:34:30.294Z,100661.25
2023-04-26T08:39:25.416Z,100635.53
2023-04-26T08:44:25.799Z,100637.22
2023-04-26T08:49:39.901Z,100643.94
2023-04-26T08:54:36.018Z,100660.94
2023-04-26T08:59:32.093Z,100662.75
2023-04-26T09:04:25.574Z,100655.75
2023-04-26T09:09:22.309Z,100632.03
2023-04-26T09:14:16.077Z,100653.91
2023-04-26T09:19:10.431Z,100651.78
2023-04-26T09:24:05.394Z,100649.78
2023-04-26T09:29:39.162Z,100623.31
2023-04-26T09:34:49.624Z,100641.28
2023-04-26T09:39:46.351Z,100642.41
2023-04-26T09:44:45.175Z,100648.47
2023-04-26T09:49:52.170Z,100649.13
2023-04-26T09:54:55.262Z,100605.97
2023-04-26T09:59:59.908Z,100615.88
2023-04-26T10:04:57.788Z,100584.94
2023-04-26T10:09:57.673Z,100622.56
2023-04-26T10:14:58.125Z,100601.75
2023-04-26T10:19:57.853Z,100610.91
2023-04-26T10:24:52.495Z,100563.06
2023-04-26T10:29:57.998Z,100611.09
2023-04-26T10:35:16.043Z,100599.72
2023-04-26T10:40:25.778Z,100592.72
2023-04-26T10:45:28.629Z,100600.78
2023-04-26T10:50:24.066Z,100592.72
2023-04-26T10:55:43.197Z,100583.47
2023-04-26T11:00:41.328Z,100561.78
2023-04-26T11:05:55.655Z,100553.81
2023-04-26T11:11:15.998Z,100565.31
2023-04-26T11:16:17.038Z,100538.66
2023-04-26T11:21:13.359Z,100554.38
2023-04-26T11:26:10.539Z,100560.31
2023-04-26T11:31:07.616Z,100523.16
2023-04-26T11:36:00.627Z,100545.22
2023-04-26T11:41:03.293Z,100541.31
2023-04-26T11:46:00.973Z,100507.00
2023-04-26T11:50:55.262Z,100532.59
2023-04-26T11:55:49.022Z,100494.66
2023-04-26T12:01:02.756Z,100493.84
2023-04-26T12:05:59.366Z,100511.56
2023-04-26T12:10:52.639Z,100522.41
2023-04-26T12:15:47.380Z,100488.09
2023-04-26T12:20:42.005Z,100506.34
2023-04-26T12:25:37.776Z,100533.97
2023-04-26T12:30:31.322Z,100511.97
2023-04-26T12:35:31.058Z,100502.00
2023-04-26T12:40:27.975Z,100506.66
2023-04-26T12:45:23.568Z,100510.19
2023-04-26T12:50:18.820Z,100505.94
2023-04-26T12:55:20.504Z,100499.78
2023-04-26T13:00:19.026Z,100494.34
2023-04-26T13:05:15.449Z,100511.03
2023-04-26T13:10:13.264Z,100496.28
2023-04-26T13:15:09.683Z,100492.34
2023-04-26T13:20:25.460Z,100508.16
2023-04-26T13:25:20.151Z,100467.59
2023-04-26T13:30:16.107Z,100508.28
2023-04-26T13:35:11.025Z,100454.13
2023-04-26T13:40:07.968Z,100478.75
2023-04-26T13:45:07.237Z,100491.91
2023-04-26T13:50:01.026Z,100478.97
2023-04-26T13:54:55.431Z,100473.66
2023-04-26T13:59:48.657Z,100452.41
2023-04-26T14:04:43.328Z,100467.78
2023-04-26T14:09:38.942Z,100436.16
2023-04-26T14:14:38.113Z,100454.13
2023-04-26T14:19:33.470Z,100468.34
2023-04-26T14:24:27.792Z,100456.84
2023-04-26T14:29:26.787Z,100450.41
2023-04-26T14:34:24.238Z,100430.31
2023-04-26T14:39:24.624Z,100428.72
2023-04-26T14:44:21.245Z,100448.03
2023-04-26T14:49:22.236Z,100402.94
2023-04-26T14:54:19.118Z,100440.91
2023-04-26T14:59:13.626Z,100440.91
2023-04-26T15:04:06.581Z,100451.53
2023-04-26T15:09:03.325Z,100399.56
2023-04-26T15:13:59.036Z,100419.69
2023-04-26T15:18:54.374Z,100440.84
2023-04-26T15:23:51.958Z,100438.59
2023-04-26T15:28:50.193Z,100412.06
2023-04-26T15:33:46.596Z,100447.22
2023-04-26T15:38:42.980Z,100447.31
2023-04-26T15:43:36.859Z,100440.06
2023-04-26T15:48:30.454Z,100435.50
2023-04-26T15:53:24.567Z,100390.63
2023-04-26T15:58:17.832Z,100417.88
2023-04-26T16:03:13.254Z,100430.09
2023-04-26T16:08:06.992Z,100409.00
2023-04-26T16:12:59.814Z,100412.34
2023-04-26T16:17:53.045Z,100447.31
2023-04-26T16:22:46.677Z,100436.91
2023-04-26T16:27:40.623Z,100438.59
2023-04-26T16:32:35.138Z,100416.53
2023-04-26T16:37:29.221Z,100414.19
2023-04-26T16:42:22.037Z,100431.38
2023-04-26T16:47:15.426Z,100423.19
2023-04-26T16:52:09.529Z,100396.66
2023-04-26T16:57:04.190Z,100423.69
2023-04-26T17:01:56.601Z,100391.13
2023-04-26T17:06:50.228Z,100417.44
2023-04-26T17:11:43.778Z,100418.31
2023-04-26T17:16:37.725Z,100390.28
2023-04-26T17:21:31.426Z,100423.50
2023-04-26T17:26:24.953Z,100431.88
2023-04-26T17:31:20.142Z,100401.94
2023-04-26T17:36:13.000Z,100428.34
2023-04-26T17:41:07.159Z,100409.06
2023-04-26T17:46:00.606Z,100406.50
2023-04-26T17:50:53.431Z,100439.44
2023-04-26T17:55:47.101Z,100414.69
2023-04-26T18:00:40.895Z,100413.84
2023-04-26T18:05:34.804Z,100403.13
2023-04-26T18:10:27.973Z,100424.16
2023-04-26T18:15:21.494Z,100437.22
2023-04-26T18:20:14.707Z,100442.84
2023-04-26T18:25:07.520Z,100436.69
2023-04-26T18:30:01.923Z,100470.22
2023-04-26T18:34:55.720Z,100468.53
2023-04-26T18:39:49.094Z,100462.06
2023-04-26T18:44:41.889Z,100499.97
2023-04-26T18:49:35.688Z,100471.31
2023-04-26T18:54:31.858Z,100476.09
2023-04-26T18:59:24.936Z,100501.56
2023-04-26T19:04:18.682Z,100478.50
2023-04-26T19:09:11.969Z,100498.28
2023-04-26T19:14:04.993Z,100516.34
2023-04-26T19:18:59.107Z,100491.88
2023-04-26T19:23:52.320Z,100512.16
2023-04-26T19:28:47.804Z,100506.44
2023-04-26T19:33:41.507Z,100505.47
2023-04-26T19:38:34.557Z,100529.44
2023-04-26T19:43:27.860Z,100549.59
2023-04-26T19:48:21.204Z,100537.56
2023-04-26T19:53:16.134Z,100539.47
2023-04-26T19:58:09.092Z,100548.03
2023-04-26T20:03:03.440Z,100547.34
2023-04-26T20:07:57.569Z,100544.78
2023-04-26T20:12:50.432Z,100554.47
2023-04-26T20:17:43.916Z,100557.03
2023-04-26T20:22:36.460Z,100545.25
2023-04-26T20:27:29.314Z,100547.25
2023-04-26T20:32:22.574Z,100551.38
2023-04-26T20:37:16.049Z,100583.19
2023-04-26T20:42:10.203Z,100556.50
2023-04-26T20:47:02.685Z,100577.13
2023-04-26T20:51:56.360Z,100575.31
2023-04-26T20:56:49.538Z,100572.75
2023-04-26T21:01:44.068Z,100571.56
2023-04-26T21:06:37.844Z,100588.16
2023-04-26T21:11:31.069Z,100574.16
2023-04-26T21:16:25.536Z,100613.13
2023-04-26T21:21:18.523Z,100583.28
2023-04-26T21:26:12.274Z,100605.06
2023-04-26T21:31:06.137Z,100587.63
2023-04-26T21:36:00.633Z,100612.28
2023-04-26T21:40:54.530Z,100600.16
2023-04-26T21:45:47.834Z,100633.34
2023-04-26T21:50:41.819Z,100590.94
2023-04-26T21:55:35.609Z,100590.94
2023-04-26T22:00:32.308Z,100596.88
2023-04-26T22:05:26.622Z,100618.16
2023-04-26T22:10:19.026Z,100598.78
2023-04-26T22:15:12.073Z,100623.47
2023-04-26T22:20:08.598Z,100621.69
2023-04-26T22:25:02.345Z,100624.38
2023-04-26T22:29:55.328Z,100616.09
2023-04-26T22:34:47.901Z,100631.53
2023-04-26T22:39:41.232Z,100611.53
2023-04-26T22:44:34.034Z,100619.63
2023-04-26T22:49:27.881Z,100620.34
2023-04-26T22:54:21.622Z,100616.22
2023-04-26T22:59:14.708Z,100650.78
2023-04-26T23:04:08.761Z,100655.97
2023-04-26T23:09:02.507Z,100676.59
2023-04-26T23:13:55.706Z,100627.47
2023-04-26T23:18:53.974Z,100665.50
2023-04-26T23:23:47.965Z,100661.59
2023-04-26T23:28:41.455Z,100653.59
2023-04-26T23:33:35.899Z,100674.03
2023-04-26T23:38:30.734Z,100650.31
2023-04-26T23:43:24.314Z,100658.94
2023-04-26T23:48:19.543Z,100673.19
2023-04-26T23:53:16.613Z,100683.81
2023-04-26T23:58:10.885Z,100624.28
